createdAt,value
2023-03-06T00:02:05.697Z,99789.44
2023-03-06T00:04:32.248Z,99796.78
2023-03-06T00:06:58.792Z,99779.41
2023-03-06T00:09:25.310Z,99790.44
2023-03-06T00:11:51.980Z,99706.59
2023-03-06T00:14:18.462Z,99751.81
2023-03-06T00:16:44.918Z,99755.63
2023-03-06T00:19:11.442Z,99749.16
2023-03-06T00:21:40.881Z,99719.09
2023-03-06T00:24:07.490Z,99667.84
2023-03-06T00:26:33.923Z,99732.16
2023-03-06T00:29:00.464Z,99681.38
2023-03-06T00:31:26.978Z,99635.00
2023-03-06T00:33:53.540Z,99689.38
2023-03-06T00:36:19.990Z,99722.13
2023-03-06T00:38:46.469Z,99689.78
2023-03-06T00:41:13.617Z,99673.44
2023-03-06T00:43:40.157Z,99653.72
2023-03-06T00:46:07.083Z,99658.22
2023-03-06T00:48:34.088Z,99664.63
2023-03-06T00:51:00.781Z,99624.53
2023-03-06T00:53:27.527Z,99648.81
2023-03-06T00:55:54.068Z,99643.69
2023-03-06T00:58:20.502Z,99639.13
2023-03-06T01:00:46.936Z,99627.22
2023-03-06T01:03:13.481Z,99648.97
2023-03-06T01:05:40.294Z,99607.44
2023-03-06T01:08:07.077Z,99615.06
2023-03-06T01:10:33.571Z,99546.66
2023-03-06T01:13:00.120Z,99606.66
2023-03-06T01:15:26.536Z,99604.53
2023-03-06T01:17:54.064Z,99591.50
2023-03-06T01:20:23.944Z,99568.16
2023-03-06T01:22:50.476Z,99588.41
2023-03-06T01:25:17.090Z,99582.75
2023-03-06T01:27:43.630Z,99580.28
2023-03-06T01:30:10.960Z,99563.31
2023-03-06T01:32:37.461Z,99569.63
2023-03-06T01:35:04.266Z,99558.72
2023-03-06T01:37:30.803Z,99544.59
2023-03-06T01:39:57.330Z,99493.72
2023-03-06T01:42:23.778Z,99546.78
2023-03-06T01:45:27.096Z,99535.38
2023-03-06T01:47:53.612Z,99547.72
2023-03-06T01:50:20.155Z,99528.59
2023-03-06T01:52:52.612Z,99526.66
2023-03-06T01:55:26.990Z,99522.72
2023-03-06T01:57:57.734Z,99452.00
2023-03-06T02:00:26.876Z,99477.84
2023-03-06T02:03:10.682Z,99499.19
2023-03-06T02:05:38.210Z,99439.06
2023-03-06T02:08:06.648Z,99451.56
2023-03-06T02:10:33.896Z,99454.28
2023-03-06T02:13:00.942Z,99439.50
2023-03-06T02:15:29.632Z,99377.16
2023-03-06T02:17:56.696Z,99411.78
2023-03-06T02:20:38.998Z,99399.09
2023-03-06T02:23:17.163Z,99384.53
2023-03-06T02:25:47.290Z,99378.25
2023-03-06T02:28:17.136Z,99299.97
2023-03-06T02:30:45.316Z,99321.22
2023-03-06T02:33:17.450Z,99316.44
2023-03-06T02:35:50.977Z,99326.25
2023-03-06T02:38:23.403Z,99308.91
2023-03-06T02:40:52.159Z,99252.75
2023-03-06T02:43:24.299Z,99290.16
2023-03-06T02:45:51.737Z,99264.81
2023-03-06T02:48:19.758Z,99191.44
2023-03-06T02:50:47.457Z,99208.41
2023-03-06T02:53:16.412Z,99188.59
2023-03-06T02:55:42.967Z,99166.38
2023-03-06T02:58:09.911Z,99141.59
2023-03-06T03:00:36.760Z,99121.50
2023-03-06T03:03:03.842Z,99108.50
2023-03-06T03:05:30.282Z,99109.19
2023-03-06T03:07:56.841Z,99111.72
2023-03-06T03:10:23.597Z,99074.06
2023-03-06T03:12:50.552Z,99107.31
2023-03-06T03:15:17.763Z,99055.84
2023-03-06T03:17:44.247Z,99118.63
2023-03-06T03:20:14.315Z,99093.69
2023-03-06T03:22:41.397Z,99059.56
2023-03-06T03:25:08.953Z,99056.03
2023-03-06T03:27:35.384Z,99062.81
2023-03-06T03:30:01.818Z,99058.59
2023-03-06T03:32:28.295Z,99093.63
2023-03-06T03:34:55.875Z,99089.28
2023-03-06T03:37:22.423Z,99096.81
2023-03-06T03:39:48.886Z,99084.28
2023-03-06T03:42:15.422Z,99079.22
2023-03-06T03:44:41.847Z,99037.03
2023-03-06T03:47:08.412Z,99049.34
2023-03-06T03:49:34.920Z,99076.19
2023-03-06T03:52:01.370Z,99063.13
2023-03-06T03:54:27.774Z,99075.97
2023-03-06T03:56:54.265Z,99033.56
2023-03-06T03:59:20.687Z,99009.22
2023-03-06T04:01:47.185Z,98980.50
2023-03-06T04:04:13.767Z,98967.22
2023-03-06T04:06:40.206Z,99009.13
2023-03-06T04:09:07.016Z,98957.88
2023-03-06T04:11:33.423Z,99028.72
2023-03-06T04:13:59.849Z,99025.03
2023-03-06T04:16:26.411Z,99024.94
2023-03-06T04:18:52.848Z,99033.88
2023-03-06T04:21:19.244Z,99050.09
2023-03-06T04:23:45.696Z,99031.06
2023-03-06T04:26:12.230Z,99000.31
2023-03-06T04:28:38.777Z,99056.63
2023-03-06T04:31:05.506Z,99044.47
2023-03-06T04:33:32.008Z,99037.59
2023-03-06T04:35:58.440Z,98994.84
2023-03-06T04:38:24.853Z,99035.03
2023-03-06T04:40:51.362Z,99001.81
2023-03-06T04:43:17.837Z,98992.44
2023-03-06T04:45:44.367Z,99021.06
2023-03-06T04:48:14.599Z,98982.13
2023-03-06T04:50:41.107Z,99010.03
2023-03-06T04:53:07.879Z,99023.91
2023-03-06T04:55:34.572Z,98987.25
2023-03-06T04:58:00.972Z,99021.97
2023-03-06T05:00:28.389Z,99013.19
2023-03-06T05:02:54.820Z,99011.75
2023-03-06T05:05:21.247Z,99018.13
2023-03-06T05:07:47.682Z,99037.00
2023-03-06T05:10:16.902Z,98970.38
2023-03-06T05:12:43.715Z,99029.94
2023-03-06T05:15:11.554Z,99019.84
2023-03-06T05:17:38.507Z,99025.59
2023-03-06T05:20:06.966Z,99049.31
2023-03-06T05:22:34.590Z,99061.00
2023-03-06T05:25:01.121Z,99001.91
2023-03-06T05:27:28.231Z,99063.38
2023-03-06T05:29:54.849Z,99059.31
2023-03-06T05:32:21.730Z,99066.63
2023-03-06T05:34:49.054Z,99059.03
2023-03-06T05:37:15.629Z,99061.38
2023-03-06T05:39:42.299Z,99021.13
2023-03-06T05:42:08.751Z,99038.91
2023-03-06T05:44:35.756Z,99068.59
2023-03-06T05:47:02.562Z,99059.78
2023-03-06T05:49:36.075Z,99022.53
2023-03-06T05:52:04.200Z,99064.91
2023-03-06T05:54:35.207Z,99007.81
2023-03-06T05:57:02.380Z,99023.75
2023-03-06T05:59:28.763Z,99054.34
2023-03-06T06:01:55.903Z,99066.25
2023-03-06T06:04:23.464Z,99042.84
2023-03-06T06:06:58.775Z,99032.00
2023-03-06T06:09:26.187Z,99045.53
2023-03-06T06:11:55.210Z,99051.06
2023-03-06T06:14:21.660Z,99055.59
2023-03-06T06:16:48.615Z,99057.69
2023-03-06T06:19:15.049Z,99055.22
2023-03-06T06:21:41.519Z,99059.34
2023-03-06T06:24:08.114Z,99043.22
2023-03-06T06:26:34.815Z,99038.97
2023-03-06T06:29:03.280Z,98985.56
2023-03-06T06:31:29.780Z,99007.06
2023-03-06T06:33:56.288Z,99026.22
2023-03-06T06:36:22.726Z,98978.66
2023-03-06T06:38:49.895Z,98976.78
2023-03-06T06:41:39.286Z,99027.41
2023-03-06T06:44:08.998Z,99015.19
2023-03-06T06:49:24.598Z,99026.97
2023-03-06T06:51:51.022Z,99031.13
2023-03-06T06:54:17.460Z,99047.22
2023-03-06T06:56:43.956Z,99048.16
2023-03-06T06:59:16.493Z,99041.22
2023-03-06T07:01:44.046Z,98993.22
2023-03-06T07:04:14.117Z,99054.78
2023-03-06T07:06:41.433Z,99007.44
2023-03-06T07:09:08.189Z,99005.25
2023-03-06T07:11:34.739Z,99051.94
2023-03-06T07:14:01.180Z,99052.56
2023-03-06T07:16:27.642Z,98996.56
2023-03-06T07:18:54.128Z,99064.38
2023-03-06T07:21:20.647Z,99050.38
2023-03-06T07:23:47.118Z,99047.84
2023-03-06T07:26:13.588Z,98992.38
2023-03-06T07:28:51.475Z,99033.91
2023-03-06T07:31:20.946Z,98995.34
2023-03-06T07:33:51.311Z,98994.19
2023-03-06T07:36:18.433Z,99026.25
2023-03-06T07:38:45.289Z,99049.53
2023-03-06T07:41:13.266Z,99037.06
2023-03-06T07:43:41.112Z,98808.78
2023-03-06T07:46:08.083Z,98814.91
2023-03-06T07:48:35.954Z,98858.50
2023-03-06T07:51:05.685Z,98837.91
2023-03-06T07:53:32.442Z,98844.84
2023-03-06T07:55:59.240Z,98828.56
2023-03-06T07:58:26.672Z,98782.81
2023-03-06T08:00:53.185Z,98824.25
2023-03-06T08:03:19.739Z,98829.56
2023-03-06T08:05:46.290Z,98815.53
2023-03-06T08:08:12.892Z,98791.97
2023-03-06T08:10:39.351Z,98822.47
2023-03-06T08:13:06.500Z,98786.44
2023-03-06T08:15:32.960Z,98783.84
2023-03-06T08:17:59.433Z,98811.91
2023-03-06T08:20:25.955Z,98823.38
2023-03-06T08:22:52.383Z,98807.16
2023-03-06T08:25:18.783Z,98840.69
2023-03-06T08:27:45.218Z,98796.13
2023-03-06T08:30:12.409Z,98811.56
2023-03-06T08:32:39.022Z,98835.91
2023-03-06T08:35:05.998Z,98788.19
2023-03-06T08:37:32.468Z,98836.88
2023-03-06T08:39:58.940Z,98810.91
2023-03-06T08:42:25.361Z,98822.09
2023-03-06T08:44:51.795Z,98799.44
2023-03-06T08:47:18.313Z,98784.00
2023-03-06T08:49:44.796Z,98839.75
2023-03-06T08:52:11.288Z,98790.84
2023-03-06T08:54:37.768Z,98808.72
2023-03-06T08:57:04.233Z,98846.84
2023-03-06T08:59:30.720Z,98846.38
2023-03-06T09:01:57.221Z,98826.47
2023-03-06T09:04:23.683Z,98842.19
2023-03-06T09:06:50.201Z,98812.00
2023-03-06T09:09:16.691Z,98833.69
2023-03-06T09:11:43.154Z,98833.34
2023-03-06T09:14:09.586Z,98788.97
2023-03-06T09:16:36.063Z,98788.41
2023-03-06T09:19:02.635Z,98780.56
2023-03-06T09:21:29.106Z,98831.34
2023-03-06T09:23:56.374Z,98832.81
2023-03-06T09:26:28.073Z,98819.59
2023-03-06T09:28:59.490Z,98819.06
2023-03-06T09:31:25.943Z,98844.84
2023-03-06T09:33:52.396Z,98853.47
2023-03-06T09:36:21.589Z,98852.38
2023-03-06T09:38:48.654Z,98857.66
2023-03-06T09:41:37.403Z,98810.81
2023-03-06T09:44:25.620Z,98855.19
2023-03-06T09:47:11.226Z,98860.72
2023-03-06T09:50:22.791Z,98849.13
2023-03-06T09:53:26.123Z,98832.00
2023-03-06T09:56:00.795Z,98803.94
2023-03-06T09:58:30.074Z,98843.38
2023-03-06T10:01:16.214Z,98851.25
2023-03-06T10:03:54.221Z,98851.59
2023-03-06T10:06:31.240Z,98842.16
2023-03-06T10:09:06.738Z,98807.06
2023-03-06T10:11:43.515Z,98849.41
2023-03-06T10:14:28.534Z,98875.38
2023-03-06T10:16:55.302Z,98884.88
2023-03-06T10:19:22.032Z,98889.75
2023-03-06T10:22:04.074Z,98855.66
2023-03-06T10:25:08.205Z,98930.25
2023-03-06T10:27:48.510Z,98938.31
2023-03-06T10:30:40.267Z,99016.66
2023-03-06T10:33:36.126Z,99060.38
2023-03-06T10:36:02.664Z,99041.63
2023-03-06T10:38:32.249Z,99089.44
2023-03-06T10:41:10.938Z,99130.00
2023-03-06T10:43:45.488Z,99139.19
2023-03-06T10:46:26.392Z,99161.13
2023-03-06T10:49:01.914Z,99154.59
2023-03-06T10:51:30.558Z,99177.88
2023-03-06T10:54:00.156Z,99180.72
2023-03-06T10:56:31.465Z,99202.31
2023-03-06T10:59:18.625Z,99207.44
2023-03-06T11:01:51.606Z,99151.38
2023-03-06T11:04:20.853Z,99228.38
2023-03-06T11:06:47.472Z,99229.41
2023-03-06T11:09:21.658Z,99243.16
2023-03-06T11:11:49.410Z,99254.06
2023-03-06T11:14:18.803Z,99250.06
2023-03-06T11:16:53.339Z,99215.66
2023-03-06T11:19:21.849Z,99277.25
2023-03-06T11:22:26.820Z,99266.44
2023-03-06T11:24:54.866Z,99272.59
2023-03-06T11:27:26.522Z,99267.09
2023-03-06T11:29:55.981Z,99227.66
2023-03-06T11:32:42.404Z,99222.69
2023-03-06T11:35:44.960Z,99250.84
2023-03-06T11:38:18.876Z,99271.47
2023-03-06T11:40:45.267Z,99297.91
2023-03-06T11:43:17.120Z,99295.72
2023-03-06T11:45:56.092Z,99320.09
2023-03-06T11:48:33.071Z,99351.59
2023-03-06T11:51:09.258Z,99404.47
2023-03-06T11:53:39.244Z,99465.13
2023-03-06T11:56:21.449Z,99494.03
2023-03-06T11:59:03.210Z,99527.78
2023-03-06T12:02:04.612Z,99505.63
2023-03-06T12:04:51.368Z,99586.63
2023-03-06T12:07:26.687Z,99564.13
2023-03-06T12:09:59.111Z,99629.19
2023-03-06T12:12:25.523Z,99608.41
2023-03-06T12:15:10.054Z,99624.03
2023-03-06T12:18:01.408Z,99615.56
2023-03-06T12:20:49.721Z,99601.28
2023-03-06T12:23:38.113Z,99545.59
2023-03-06T12:26:42.119Z,99592.66
2023-03-06T12:29:41.110Z,99587.84
2023-03-06T12:32:44.947Z,99634.06
2023-03-06T12:35:48.491Z,99651.59
2023-03-06T12:38:43.776Z,99655.69
2023-03-06T12:41:47.689Z,99651.41
2023-03-06T12:44:33.005Z,99681.72
2023-03-06T12:47:04.906Z,99662.91
2023-03-06T12:49:33.469Z,99672.06
2023-03-06T12:52:02.112Z,99743.13
2023-03-06T12:54:33.265Z,99717.50
2023-03-06T12:57:00.745Z,99801.91
2023-03-06T12:59:44.863Z,99812.84
2023-03-06T13:02:11.279Z,99822.09
2023-03-06T13:04:59.321Z,99844.53
2023-03-06T13:07:54.077Z,99907.56
2023-03-06T13:10:40.964Z,99920.94
2023-03-06T13:13:33.619Z,99900.47
2023-03-06T13:16:34.561Z,99924.94
2023-03-06T13:19:16.642Z,99899.19
2023-03-06T13:21:55.337Z,99961.03
2023-03-06T13:24:27.406Z,99961.44
2023-03-06T13:27:05.939Z,100005.56
2023-03-06T13:29:38.277Z,99964.56
2023-03-06T13:32:12.318Z,100007.34
2023-03-06T13:34:43.887Z,100007.56
2023-03-06T13:37:19.562Z,100020.16
2023-03-06T13:39:54.902Z,100016.91
2023-03-06T13:42:31.282Z,99996.97
2023-03-06T13:45:07.520Z,99961.41
2023-03-06T13:48:15.568Z,100019.69
2023-03-06T13:50:46.917Z,99960.63
2023-03-06T13:53:19.512Z,99984.00
2023-03-06T13:56:18.737Z,99993.19
2023-03-06T13:58:54.227Z,100000.38
2023-03-06T14:01:23.849Z,99946.47
2023-03-06T14:04:27.575Z,99989.19
2023-03-06T14:07:20.096Z,99981.81
2023-03-06T14:09:59.725Z,99972.78
2023-03-06T14:12:32.925Z,99947.25
2023-03-06T14:15:04.370Z,99951.25
2023-03-06T14:17:37.471Z,99904.19
2023-03-06T14:20:16.404Z,99953.84
2023-03-06T14:22:42.842Z,99942.47
2023-03-06T14:25:28.561Z,99932.22
2023-03-06T14:27:58.274Z,99887.78
2023-03-06T14:30:32.136Z,99905.06
2023-03-06T14:32:59.076Z,99845.19
2023-03-06T14:35:31.003Z,99880.81
2023-03-06T14:38:03.921Z,99878.56
2023-03-06T14:40:42.525Z,99880.81
2023-03-06T14:43:21.042Z,99867.06
2023-03-06T14:45:52.616Z,99871.47
2023-03-06T14:48:19.816Z,99874.06
2023-03-06T14:50:56.870Z,99882.03
2023-03-06T14:53:32.104Z,99860.69
2023-03-06T14:56:00.897Z,99847.56
2023-03-06T14:58:40.238Z,99875.47
2023-03-06T15:01:09.392Z,99901.31
2023-03-06T15:03:43.411Z,99936.38
2023-03-06T15:06:15.220Z,99941.63
2023-03-06T15:08:45.340Z,99953.25
2023-03-06T15:11:11.826Z,99973.81
2023-03-06T15:13:38.322Z,99979.28
2023-03-06T15:16:08.812Z,99991.66
2023-03-06T15:18:35.222Z,99973.97
2023-03-06T15:21:10.675Z,99974.50
2023-03-06T15:23:42.601Z,99975.50
2023-03-06T15:26:20.756Z,99983.25
2023-03-06T15:28:59.973Z,99989.13
2023-03-06T15:31:40.382Z,99967.25
2023-03-06T15:34:06.769Z,99970.03
2023-03-06T15:36:37.709Z,99958.94
2023-03-06T15:39:34.748Z,99970.22
2023-03-06T15:42:20.987Z,99985.81
2023-03-06T15:44:50.536Z,99935.50
2023-03-06T15:47:17.523Z,99982.91
2023-03-06T15:49:43.985Z,99983.16
2023-03-06T15:52:10.426Z,99932.25
2023-03-06T15:54:37.075Z,99967.75
2023-03-06T15:57:13.508Z,99959.75
2023-03-06T15:59:44.368Z,99916.78
2023-03-06T16:02:19.241Z,99912.31
2023-03-06T16:04:46.850Z,99852.72
2023-03-06T16:07:14.260Z,99833.22
2023-03-06T16:09:42.188Z,99858.50
2023-03-06T16:12:20.118Z,99830.06
2023-03-06T16:14:48.237Z,99876.06
2023-03-06T16:17:15.993Z,99794.78
2023-03-06T16:19:43.010Z,99764.38
2023-03-06T16:22:09.515Z,99729.19
2023-03-06T16:24:35.949Z,99777.63
2023-03-06T16:27:02.906Z,99703.94
2023-03-06T16:29:29.950Z,99769.66
2023-03-06T16:31:57.909Z,99724.56
2023-03-06T16:34:25.317Z,99760.97
2023-03-06T16:36:51.888Z,99736.31
2023-03-06T16:39:21.138Z,99751.97
2023-03-06T16:41:47.891Z,99762.00
2023-03-06T16:44:14.329Z,99767.97
2023-03-06T16:46:45.446Z,99755.22
2023-03-06T16:49:19.210Z,99787.34
2023-03-06T16:51:45.768Z,99819.47
2023-03-06T16:54:12.935Z,99812.56
2023-03-06T16:56:39.440Z,99804.66
2023-03-06T16:59:06.083Z,99771.28
2023-03-06T17:01:32.713Z,99778.78
2023-03-06T17:03:59.484Z,99741.69
2023-03-06T17:06:26.057Z,99662.53
2023-03-06T17:08:52.616Z,99673.34
2023-03-06T17:11:19.097Z,99640.69
2023-03-06T17:13:45.904Z,99623.16
2023-03-06T17:16:14.078Z,99594.25
2023-03-06T17:18:40.619Z,99552.09
2023-03-06T17:21:20.461Z,99497.44
2023-03-06T17:23:47.192Z,99397.53
2023-03-06T17:26:18.797Z,99425.34
2023-03-06T17:28:45.924Z,99331.50
2023-03-06T17:31:20.848Z,99311.50
2023-03-06T17:33:47.469Z,99344.56
2023-03-06T17:36:14.854Z,99312.25
2023-03-06T17:38:42.224Z,99288.84
2023-03-06T17:41:09.865Z,99274.34
2023-03-06T17:43:37.505Z,99214.47
2023-03-06T17:46:09.023Z,99203.75
2023-03-06T17:48:36.193Z,99176.16
2023-03-06T17:51:03.090Z,99147.94
2023-03-06T17:53:29.585Z,99133.28
2023-03-06T17:55:56.243Z,99147.56
2023-03-06T17:58:22.632Z,99155.50
2023-03-06T18:00:49.145Z,99139.22
2023-03-06T18:03:15.750Z,99127.34
2023-03-06T18:05:42.456Z,99061.66
2023-03-06T18:08:09.105Z,99090.66
2023-03-06T18:10:39.307Z,99086.88
2023-03-06T18:13:06.113Z,99069.03
2023-03-06T18:15:32.583Z,99019.25
2023-03-06T18:17:59.261Z,98997.03
2023-03-06T18:20:25.735Z,98960.97
2023-03-06T18:22:52.146Z,99005.94
2023-03-06T18:25:18.718Z,98981.38
2023-03-06T18:27:45.145Z,98996.66
2023-03-06T18:30:12.017Z,98977.81
2023-03-06T18:32:38.530Z,98948.84
2023-03-06T18:35:05.496Z,98956.59
2023-03-06T18:37:31.907Z,98877.53
2023-03-06T18:39:58.559Z,98921.09
2023-03-06T18:42:24.998Z,98837.47
2023-03-06T18:44:51.433Z,98889.34
2023-03-06T18:47:17.962Z,98833.50
2023-03-06T18:49:44.450Z,98834.84
2023-03-06T18:52:11.637Z,98848.47
2023-03-06T18:54:38.533Z,98762.38
2023-03-06T18:57:05.250Z,98735.56
2023-03-06T18:59:31.804Z,98769.13
2023-03-06T19:01:58.296Z,98778.38
2023-03-06T19:04:26.339Z,98709.13
2023-03-06T19:06:52.939Z,98741.28
2023-03-06T19:09:19.451Z,98728.44
2023-03-06T19:11:45.963Z,98652.31
2023-03-06T19:14:13.852Z,98697.25
2023-03-06T19:16:40.452Z,98695.47
2023-03-06T19:19:07.123Z,98678.03
2023-03-06T19:21:33.680Z,98613.88
2023-03-06T19:24:02.085Z,98650.13
2023-03-06T19:26:28.670Z,98661.56
2023-03-06T19:28:55.230Z,98643.09
2023-03-06T19:31:27.594Z,98593.28
2023-03-06T19:33:55.866Z,98598.41
2023-03-06T19:36:24.445Z,98598.75
2023-03-06T19:38:54.037Z,98553.47
2023-03-06T19:41:20.825Z,98534.00
2023-03-06T19:43:50.514Z,98456.19
2023-03-06T19:46:17.010Z,98449.28
2023-03-06T19:48:44.007Z,98423.06
2023-03-06T19:51:11.034Z,98496.44
2023-03-06T19:53:37.583Z,98460.59
2023-03-06T19:56:07.910Z,98416.72
2023-03-06T19:58:35.676Z,98438.00
2023-03-06T20:01:13.446Z,98396.56
2023-03-06T20:03:39.966Z,98396.09
2023-03-06T20:06:07.653Z,98412.84
2023-03-06T20:08:34.774Z,98323.28
2023-03-06T20:11:01.628Z,98383.91
2023-03-06T20:13:28.203Z,98377.88
2023-03-06T20:15:54.755Z,98295.47
2023-03-06T20:18:21.237Z,98365.19
2023-03-06T20:20:58.448Z,98348.69
2023-03-06T20:23:25.097Z,98348.03
2023-03-06T20:25:51.546Z,98326.66
2023-03-06T20:28:17.993Z,98334.22
2023-03-06T20:30:44.499Z,98317.88
2023-03-06T20:33:10.961Z,98354.91
2023-03-06T20:35:41.356Z,98346.13
2023-03-06T20:38:08.572Z,98349.50
2023-03-06T20:40:39.563Z,98342.63
2023-03-06T20:43:06.638Z,98332.31
2023-03-06T20:45:34.231Z,98264.84
2023-03-06T20:48:00.835Z,98350.59
2023-03-06T20:50:28.497Z,98294.53
2023-03-06T20:52:56.579Z,98360.78
2023-03-06T20:55:23.256Z,98342.91
2023-03-06T20:57:53.026Z,98283.75
2023-03-06T21:00:19.976Z,98352.13
2023-03-06T21:02:46.612Z,98297.63
2023-03-06T21:05:13.303Z,98393.66
2023-03-06T21:07:39.828Z,98384.06
2023-03-06T21:10:07.039Z,98384.25
2023-03-06T21:12:33.487Z,98389.22
2023-03-06T21:14:59.970Z,98301.63
2023-03-06T21:17:27.677Z,98384.94
2023-03-06T21:19:54.184Z,98377.16
2023-03-06T21:22:20.713Z,98351.25
2023-03-06T21:24:47.370Z,98294.25
2023-03-06T21:27:13.844Z,98241.88
2023-03-06T21:29:40.309Z,98217.97
2023-03-06T21:32:06.905Z,98096.31
2023-03-06T21:34:33.463Z,98208.66
2023-03-06T21:37:00.026Z,98142.59
2023-03-06T21:39:26.492Z,98166.25
2023-03-06T21:41:52.936Z,98135.97
2023-03-06T21:44:19.361Z,98119.16
2023-03-06T21:46:45.812Z,98106.56
2023-03-06T21:49:12.270Z,98113.19
2023-03-06T21:51:38.740Z,98060.69
2023-03-06T21:54:06.626Z,98036.97
2023-03-06T21:56:33.127Z,98089.28
2023-03-06T21:58:59.635Z,97983.56
2023-03-06T22:01:28.051Z,97887.31
2023-03-06T22:03:54.755Z,97816.91
2023-03-06T22:06:24.361Z,97786.41
2023-03-06T22:08:51.544Z,97729.81
2023-03-06T22:11:19.888Z,97810.34
2023-03-06T22:13:47.125Z,97738.16
2023-03-06T22:16:14.782Z,97749.34
2023-03-06T22:18:45.105Z,97822.94
2023-03-06T22:21:14.055Z,97856.72
2023-03-06T22:23:40.693Z,97856.25
2023-03-06T22:26:12.994Z,97871.41
2023-03-06T22:28:40.212Z,97798.38
2023-03-06T22:31:15.110Z,97859.66
2023-03-06T22:33:42.266Z,97871.78
2023-03-06T22:36:11.394Z,97901.66
2023-03-06T22:38:40.719Z,97823.81
2023-03-06T22:41:08.582Z,97836.44
2023-03-06T22:43:35.872Z,97830.75
2023-03-06T22:46:04.583Z,97890.66
2023-03-06T22:48:31.429Z,97819.25
2023-03-06T22:51:20.627Z,97804.53
2023-03-06T22:53:48.019Z,97900.09
2023-03-06T22:56:17.202Z,97899.94
2023-03-06T22:58:44.308Z,97878.09
2023-03-06T23:01:13.983Z,97925.00
2023-03-06T23:03:43.072Z,97825.31
2023-03-06T23:06:12.386Z,97844.16
2023-03-06T23:08:39.141Z,97925.81
2023-03-06T23:11:11.049Z,97843.03
2023-03-06T23:13:37.776Z,97947.06
2023-03-06T23:16:05.919Z,97957.84
2023-03-06T23:18:33.889Z,97973.31
2023-03-06T23:21:00.359Z,97962.34
2023-03-06T23:23:26.911Z,97883.41
2023-03-06T23:25:59.237Z,97963.13
2023-03-06T23:28:26.442Z,97895.41
2023-03-06T23:30:53.031Z,97930.66
2023-03-06T23:33:19.507Z,97953.59
2023-03-06T23:35:46.072Z,97984.88
2023-03-06T23:38:12.958Z,97887.72
2023-03-06T23:40:39.459Z,97995.34
2023-03-06T23:43:05.940Z,97976.03
2023-03-06T23:45:32.616Z,97971.09
2023-03-06T23:47:59.105Z,97914.59
2023-03-06T23:50:25.975Z,97972.56
2023-03-06T23:52:53.417Z,97985.22
2023-03-06T23:55:20.149Z,97957.09
2023-03-06T23:57:46.814Z,97917.47
